createdAt,value
2018-09-23T00:00:42.977Z,39.00
2018-09-23T00:03:11.494Z,39.40
2018-09-23T00:05:39.785Z,39.40
2018-09-23T00:08:08.106Z,38.90
2018-09-23T00:10:36.306Z,39.30
2018-09-23T00:13:04.595Z,39.20
2018-09-23T00:15:33.022Z,38.80
2018-09-23T00:18:01.342Z,38.70
2018-09-23T00:20:29.595Z,39.00
2018-09-23T00:22:57.802Z,38.30
2018-09-23T00:25:26.840Z,37.40
2018-09-23T00:27:55.058Z,37.20
2018-09-23T00:30:23.272Z,37.50
2018-09-23T00:32:51.531Z,38.30
2018-09-23T00:35:19.734Z,38.80
2018-09-23T00:37:49.202Z,37.40
2018-09-23T00:40:17.751Z,37.10
2018-09-23T00:42:45.962Z,37.10
2018-09-23T00:45:14.194Z,37.40
2018-09-23T00:47:42.719Z,37.10
2018-09-23T00:50:11.968Z,37.40
2018-09-23T00:52:40.306Z,38.00
2018-09-23T00:55:08.581Z,38.00
2018-09-23T00:57:36.854Z,37.00
2018-09-23T01:00:05.794Z,36.60
2018-09-23T01:02:34.173Z,36.90
2018-09-23T01:05:02.486Z,36.50
2018-09-23T01:07:30.662Z,36.90
2018-09-23T01:09:58.912Z,37.40
2018-09-23T01:12:27.236Z,38.10
2018-09-23T01:14:55.622Z,38.40
2018-09-23T01:17:23.821Z,36.90
2018-09-23T01:19:52.098Z,37.40
2018-09-23T01:22:20.295Z,37.30
2018-09-23T01:24:48.697Z,37.50
2018-09-23T01:27:16.898Z,37.50
2018-09-23T01:29:45.139Z,37.80
2018-09-23T01:32:13.415Z,38.30
2018-09-23T01:34:41.817Z,38.70
2018-09-23T01:37:10.273Z,38.70
2018-09-23T01:39:38.643Z,39.20
2018-09-23T01:42:07.405Z,38.90
2018-09-23T01:44:35.642Z,38.80
2018-09-23T01:47:03.970Z,38.80
2018-09-23T01:49:32.273Z,39.60
2018-09-23T01:52:00.832Z,40.30
2018-09-23T01:54:29.213Z,41.90
2018-09-23T01:56:57.672Z,42.10
2018-09-23T01:59:25.910Z,43.20
2018-09-23T02:01:54.205Z,42.90
2018-09-23T02:04:22.439Z,43.10
2018-09-23T02:06:50.673Z,43.50
2018-09-23T02:09:18.954Z,42.80
2018-09-23T02:11:47.444Z,42.00
2018-09-23T02:14:15.711Z,42.20
2018-09-23T02:16:43.896Z,42.60
2018-09-23T02:19:12.510Z,42.80
2018-09-23T02:21:40.699Z,42.90
2018-09-23T02:24:08.902Z,43.70
2018-09-23T02:26:37.125Z,44.80
2018-09-23T02:29:05.634Z,45.30
2018-09-23T02:31:33.881Z,45.00
2018-09-23T02:34:02.083Z,45.10
2018-09-23T02:36:30.330Z,46.10
2018-09-23T02:38:58.727Z,45.60
2018-09-23T02:41:27.097Z,45.70
2018-09-23T02:43:55.606Z,45.60
2018-09-23T02:46:23.781Z,45.40
2018-09-23T02:48:52.025Z,45.70
2018-09-23T02:51:20.554Z,45.40
2018-09-23T02:53:48.789Z,45.10
2018-09-23T02:56:17.016Z,45.00
2018-09-23T02:58:45.290Z,46.00
2018-09-23T03:01:13.551Z,45.90
2018-09-23T03:03:42.325Z,46.20
2018-09-23T03:06:10.607Z,45.20
2018-09-23T03:08:38.830Z,46.10
2018-09-23T03:11:07.849Z,46.10
2018-09-23T03:13:36.160Z,45.60
2018-09-23T03:16:04.510Z,46.10
2018-09-23T03:18:32.710Z,46.00
2018-09-23T03:21:00.985Z,46.50
2018-09-23T03:23:29.236Z,46.80
2018-09-23T03:25:57.673Z,48.10
2018-09-23T03:28:25.861Z,47.70
2018-09-23T03:30:54.126Z,47.80
2018-09-23T03:33:22.474Z,48.20
2018-09-23T03:35:50.904Z,48.50
2018-09-23T03:38:19.295Z,48.80
2018-09-23T03:40:47.502Z,48.70
2018-09-23T03:43:15.790Z,48.90
2018-09-23T03:45:44.090Z,49.20
2018-09-23T03:48:12.566Z,48.50
2018-09-23T03:50:40.786Z,48.80
2018-09-23T03:53:08.985Z,48.90
2018-09-23T03:55:37.259Z,48.80
2018-09-23T03:58:05.872Z,49.10
2018-09-23T04:00:34.538Z,49.20
2018-09-23T04:03:02.768Z,49.40
2018-09-23T04:05:30.982Z,49.40
2018-09-23T04:07:59.254Z,49.50
2018-09-23T04:10:27.810Z,49.70
2018-09-23T04:12:56.055Z,49.90
2018-09-23T04:15:24.287Z,50.10
2018-09-23T04:17:52.545Z,50.60
2018-09-23T04:20:21.002Z,50.30
2018-09-23T04:22:51.293Z,51.20
2018-09-23T04:25:20.866Z,52.10
2018-09-23T04:27:49.708Z,52.50
2018-09-23T04:30:19.463Z,52.30
2018-09-23T04:32:47.991Z,53.40
2018-09-23T04:35:16.790Z,54.10
2018-09-23T04:37:45.238Z,54.10
2018-09-23T04:40:14.016Z,54.00
2018-09-23T04:42:42.221Z,54.00
2018-09-23T04:45:10.422Z,54.40
2018-09-23T04:47:38.670Z,54.80
2018-09-23T04:50:06.902Z,54.00
2018-09-23T04:52:36.084Z,53.60
2018-09-23T04:55:04.685Z,53.70
2018-09-23T04:57:32.975Z,53.60
2018-09-23T05:00:01.169Z,53.90
2018-09-23T05:02:29.338Z,54.00
2018-09-23T05:04:57.624Z,54.00
2018-09-23T05:07:25.877Z,53.70
2018-09-23T05:09:54.089Z,54.20
2018-09-23T05:12:22.386Z,54.70
2018-09-23T05:14:50.609Z,54.70
2018-09-23T05:17:19.589Z,54.30
2018-09-23T05:19:47.869Z,54.30
2018-09-23T05:22:16.086Z,54.90
2018-09-23T05:24:44.313Z,54.80
2018-09-23T05:27:12.650Z,54.90
2018-09-23T05:29:40.907Z,55.20
2018-09-23T05:32:09.132Z,55.00
2018-09-23T05:34:37.341Z,55.10
2018-09-23T05:37:06.116Z,55.30
2018-09-23T05:39:34.591Z,55.80
2018-09-23T05:42:02.783Z,56.00
2018-09-23T05:44:31.027Z,55.70
2018-09-23T05:46:59.205Z,56.70
2018-09-23T05:49:27.522Z,56.80
2018-09-23T05:51:55.748Z,57.40
2018-09-23T05:54:23.964Z,57.80
2018-09-23T05:56:52.167Z,58.60
2018-09-23T05:59:20.636Z,58.30
2018-09-23T06:01:48.902Z,57.70
2018-09-23T06:04:17.099Z,58.50
2018-09-23T06:06:45.305Z,58.90
2018-09-23T06:09:13.979Z,57.50
2018-09-23T06:11:42.276Z,57.70
2018-09-23T06:14:10.506Z,58.40
2018-09-23T06:16:38.677Z,59.00
2018-09-23T06:19:06.878Z,59.30
2018-09-23T06:21:35.180Z,59.60
2018-09-23T06:24:03.387Z,59.40
2018-09-23T06:26:31.595Z,59.10
2018-09-23T06:28:59.769Z,58.60
2018-09-23T06:31:28.210Z,59.70
2018-09-23T06:33:56.473Z,59.40
2018-09-23T06:36:24.708Z,59.20
2018-09-23T06:38:52.949Z,59.20
2018-09-23T06:41:21.267Z,59.70
2018-09-23T06:43:49.739Z,58.60
2018-09-23T06:46:18.075Z,58.70
2018-09-23T06:48:46.275Z,59.50
2018-09-23T06:51:14.765Z,59.70
2018-09-23T06:53:43.401Z,58.50
2018-09-23T06:56:12.236Z,59.10
2018-09-23T06:58:40.482Z,58.80
2018-09-23T07:01:08.702Z,57.90
2018-09-23T07:03:36.922Z,58.20
2018-09-23T07:06:05.328Z,58.10
2018-09-23T07:08:34.714Z,58.50
2018-09-23T07:11:02.991Z,58.60
2018-09-23T07:13:31.201Z,57.80
2018-09-23T07:15:59.442Z,57.80
2018-09-23T07:18:28.187Z,57.60
2018-09-23T07:20:56.754Z,57.70
2018-09-23T07:23:24.921Z,58.20
2018-09-23T07:25:53.183Z,57.70
2018-09-23T07:28:22.340Z,57.60
2018-09-23T07:30:50.794Z,57.90
2018-09-23T07:33:19.090Z,58.60
2018-09-23T07:35:47.320Z,58.00
2018-09-23T07:38:15.601Z,57.10
2018-09-23T07:40:44.331Z,57.40
2018-09-23T07:43:12.757Z,57.80
2018-09-23T07:45:40.974Z,58.10
2018-09-23T07:48:09.259Z,58.10
2018-09-23T07:50:37.441Z,57.90
2018-09-23T07:53:06.133Z,58.10
2018-09-23T07:55:34.405Z,57.50
2018-09-23T07:58:02.612Z,57.90
2018-09-23T08:00:30.791Z,57.40
2018-09-23T08:02:59.033Z,57.10
2018-09-23T08:05:28.068Z,57.70
2018-09-23T08:07:57.525Z,57.70
2018-09-23T08:10:25.694Z,57.90
2018-09-23T08:12:54.098Z,57.90
2018-09-23T08:15:22.256Z,57.40
2018-09-23T08:17:50.555Z,57.00
2018-09-23T08:20:18.915Z,57.40
2018-09-23T08:22:47.509Z,56.70
2018-09-23T08:25:15.763Z,56.50
2018-09-23T08:27:45.638Z,56.70
2018-09-23T08:30:13.965Z,56.20
2018-09-23T08:32:42.663Z,56.50
2018-09-23T08:35:10.873Z,56.00
2018-09-23T08:37:39.255Z,56.20
2018-09-23T08:40:07.526Z,56.20
2018-09-23T08:42:35.777Z,56.60
2018-09-23T08:45:04.114Z,57.40
2018-09-23T08:47:32.471Z,57.70
2018-09-23T08:50:00.830Z,57.00
2018-09-23T08:52:29.287Z,56.90
2018-09-23T08:54:57.541Z,57.00
2018-09-23T08:57:25.802Z,57.50
2018-09-23T08:59:53.975Z,57.50
2018-09-23T09:02:22.236Z,57.50
2018-09-23T09:04:50.634Z,57.50
2018-09-23T09:07:19.198Z,58.30
2018-09-23T09:09:47.554Z,57.80
2018-09-23T09:12:15.831Z,58.00
2018-09-23T09:14:44.340Z,57.80
2018-09-23T09:17:12.573Z,58.30
2018-09-23T09:19:40.835Z,57.70
2018-09-23T09:22:09.136Z,57.10
2018-09-23T09:24:37.425Z,57.10
2018-09-23T09:27:06.230Z,58.10
2018-09-23T09:29:35.024Z,57.40
2018-09-23T09:32:05.277Z,57.20
2018-09-23T09:34:33.561Z,58.60
2018-09-23T09:37:02.043Z,56.70
2018-09-23T09:39:30.420Z,55.80
2018-09-23T09:41:59.044Z,54.70
2018-09-23T09:44:28.165Z,54.90
2018-09-23T09:46:56.663Z,54.50
2018-09-23T09:49:24.879Z,54.20
2018-09-23T09:51:53.145Z,55.40
2018-09-23T09:54:22.465Z,55.80
2018-09-23T09:56:51.354Z,56.50
2018-09-23T09:59:20.821Z,56.60
2018-09-23T10:01:49.129Z,56.30
2018-09-23T10:04:17.429Z,57.00
2018-09-23T10:06:45.956Z,57.70
2018-09-23T10:09:14.381Z,57.80
2018-09-23T10:11:42.663Z,57.70
2018-09-23T10:14:10.960Z,57.00
2018-09-23T10:16:39.286Z,56.20
2018-09-23T10:19:07.812Z,56.10
2018-09-23T10:21:36.387Z,55.80
2018-09-23T10:24:04.845Z,57.00
2018-09-23T10:26:33.051Z,55.60
2018-09-23T10:29:01.323Z,55.10
2018-09-23T10:31:29.750Z,53.40
2018-09-23T10:33:58.518Z,50.60
2018-09-23T10:36:27.148Z,49.20
2018-09-23T10:38:55.451Z,49.80
2018-09-23T10:41:24.119Z,50.10
2018-09-23T10:43:52.378Z,51.50
2018-09-23T10:46:20.811Z,51.10
2018-09-23T10:48:49.227Z,52.20
2018-09-23T10:51:17.386Z,52.40
2018-09-23T10:53:45.618Z,53.60
2018-09-23T10:56:14.122Z,52.20
2018-09-23T10:58:42.702Z,51.50
2018-09-23T11:01:10.899Z,51.90
2018-09-23T11:03:39.149Z,51.70
2018-09-23T11:06:07.407Z,51.10
2018-09-23T11:08:35.957Z,51.20
2018-09-23T11:11:04.169Z,51.30
2018-09-23T11:13:32.449Z,49.30
2018-09-23T11:16:00.658Z,48.00
2018-09-23T11:18:29.943Z,47.50
2018-09-23T11:20:58.501Z,48.00
2018-09-23T11:23:26.769Z,48.60
2018-09-23T11:25:54.995Z,48.80
2018-09-23T11:28:23.200Z,50.10
2018-09-23T11:30:51.914Z,52.30
2018-09-23T11:33:20.385Z,53.10
2018-09-23T11:35:48.859Z,53.70
2018-09-23T11:38:17.146Z,54.40
2018-09-23T11:40:45.377Z,55.30
2018-09-23T11:43:13.696Z,55.70
2018-09-23T11:45:42.636Z,56.50
2018-09-23T11:48:10.996Z,55.60
2018-09-23T11:50:39.213Z,55.80
2018-09-23T11:53:07.479Z,56.20
2018-09-23T11:55:36.052Z,56.70
2018-09-23T11:58:04.758Z,57.10
2018-09-23T12:00:32.987Z,57.30
2018-09-23T12:03:01.195Z,56.40
2018-09-23T12:05:29.987Z,56.90
2018-09-23T12:07:58.450Z,56.80
2018-09-23T12:10:26.745Z,56.00
2018-09-23T12:12:54.957Z,56.00
2018-09-23T12:15:23.137Z,55.70
2018-09-23T12:17:51.537Z,56.00
2018-09-23T12:20:19.775Z,54.90
2018-09-23T12:22:48.163Z,54.10
2018-09-23T12:25:16.406Z,54.30
2018-09-23T12:27:44.717Z,54.60
2018-09-23T12:30:12.914Z,54.60
2018-09-23T12:32:41.243Z,53.90
2018-09-23T12:35:09.542Z,54.00
2018-09-23T12:37:40.150Z,53.60
2018-09-23T12:40:10.454Z,53.90
2018-09-23T12:42:39.578Z,53.90
2018-09-23T12:45:08.297Z,53.60
2018-09-23T12:47:36.666Z,52.80
2018-09-23T12:50:05.855Z,52.30
2018-09-23T12:52:34.205Z,52.00
2018-09-23T12:55:02.387Z,52.40
2018-09-23T12:57:31.401Z,52.10
2018-09-23T12:59:59.675Z,52.70
2018-09-23T13:02:28.096Z,52.40
2018-09-23T13:05:00.783Z,52.40
2018-09-23T13:07:29.489Z,52.30
2018-09-23T13:09:57.803Z,50.80
2018-09-23T13:12:26.033Z,49.00
2018-09-23T13:14:54.221Z,49.40
2018-09-23T13:17:22.482Z,49.50
2018-09-23T13:19:50.937Z,49.80
2018-09-23T13:22:19.195Z,50.60
2018-09-23T13:24:47.378Z,50.60
2018-09-23T13:27:15.609Z,51.20
2018-09-23T13:29:43.926Z,50.40
2018-09-23T13:32:12.190Z,50.70
2018-09-23T13:34:40.422Z,50.60
2018-09-23T13:37:08.681Z,50.00
2018-09-23T13:39:37.170Z,49.10
2018-09-23T13:42:05.401Z,49.40
2018-09-23T13:44:33.609Z,49.90
2018-09-23T13:47:01.898Z,50.50
2018-09-23T13:49:30.180Z,50.30
2018-09-23T13:51:58.600Z,50.30
2018-09-23T13:54:26.854Z,50.00
2018-09-23T13:56:55.142Z,50.00
2018-09-23T13:59:23.327Z,50.10
2018-09-23T14:01:51.857Z,49.80
2018-09-23T14:04:20.679Z,49.20
2018-09-23T14:06:48.944Z,48.80
2018-09-23T14:09:17.221Z,48.40
2018-09-23T14:11:45.445Z,47.70
2018-09-23T14:14:13.807Z,47.50
2018-09-23T14:16:42.216Z,47.30
2018-09-23T14:19:10.430Z,46.40
2018-09-23T14:21:38.713Z,45.60
2018-09-23T14:24:06.995Z,45.20
2018-09-23T14:26:35.228Z,45.20
2018-09-23T14:29:03.651Z,45.40
2018-09-23T14:31:31.862Z,45.60
2018-09-23T14:34:00.088Z,46.00
2018-09-23T14:36:28.392Z,46.10
2018-09-23T14:38:56.638Z,46.40
2018-09-23T14:41:24.821Z,46.30
2018-09-23T14:43:53.075Z,45.50
2018-09-23T14:46:21.766Z,44.30
2018-09-23T14:48:49.981Z,44.00
2018-09-23T14:51:18.150Z,43.80
2018-09-23T14:53:46.322Z,43.80
2018-09-23T14:56:14.623Z,44.00
2018-09-23T14:58:42.806Z,44.70
2018-09-23T15:01:11.030Z,44.80
2018-09-23T15:03:39.335Z,43.90
2018-09-23T15:06:07.556Z,44.50
2018-09-23T15:08:36.410Z,44.30
2018-09-23T15:11:05.470Z,44.40
2018-09-23T15:13:33.667Z,44.60
2018-09-23T15:16:01.894Z,44.80
2018-09-23T15:18:30.173Z,44.70
2018-09-23T15:20:58.775Z,44.70
2018-09-23T15:23:27.051Z,44.90
2018-09-23T15:25:55.298Z,44.50
2018-09-23T15:28:23.575Z,44.40
2018-09-23T15:30:51.969Z,44.40
2018-09-23T15:33:21.222Z,45.00
2018-09-23T15:35:50.356Z,45.30
2018-09-23T15:38:18.565Z,45.60
2018-09-23T15:40:46.769Z,46.10
2018-09-23T15:43:14.989Z,46.20
2018-09-23T15:45:43.447Z,46.20
2018-09-23T15:48:12.176Z,46.20
2018-09-23T15:50:40.602Z,46.00
2018-09-23T15:53:09.389Z,46.30
2018-09-23T15:55:37.806Z,46.30
2018-09-23T15:58:06.401Z,47.20
2018-09-23T16:00:35.215Z,51.20
2018-09-23T16:03:03.522Z,53.30
2018-09-23T16:05:31.827Z,55.20
2018-09-23T16:08:00.468Z,56.90
2018-09-23T16:10:28.678Z,58.90
2018-09-23T16:12:57.136Z,61.60
2018-09-23T16:15:25.329Z,63.70
2018-09-23T16:17:53.723Z,65.70
2018-09-23T16:20:22.502Z,66.50
2018-09-23T16:22:50.927Z,67.50
2018-09-23T16:25:19.288Z,69.80
2018-09-23T16:27:47.732Z,70.90
2018-09-23T16:30:15.963Z,70.90
2018-09-23T16:32:44.318Z,67.00
2018-09-23T16:35:13.205Z,66.00
2018-09-23T16:37:41.561Z,66.10
2018-09-23T16:40:09.800Z,67.40
2018-09-23T16:42:38.057Z,68.70
2018-09-23T16:45:06.361Z,69.90
2018-09-23T16:47:35.393Z,71.60
2018-09-23T16:50:03.781Z,71.40
2018-09-23T16:52:32.019Z,70.90
2018-09-23T16:55:00.282Z,71.30
2018-09-23T16:57:28.614Z,71.50
2018-09-23T16:59:56.917Z,72.20
2018-09-23T17:02:25.475Z,72.30
2018-09-23T17:04:53.785Z,72.40
2018-09-23T17:07:22.473Z,72.50
2018-09-23T17:09:51.536Z,72.00
2018-09-23T17:12:19.951Z,72.50
2018-09-23T17:14:48.394Z,71.60
2018-09-23T17:17:16.639Z,71.50
2018-09-23T17:19:44.911Z,71.30
2018-09-23T17:22:13.219Z,72.10
2018-09-23T17:24:41.419Z,72.00
2018-09-23T17:27:09.655Z,71.80
2018-09-23T17:29:38.009Z,71.70
2018-09-23T17:32:06.715Z,71.70
2018-09-23T17:34:35.241Z,71.70
2018-09-23T17:37:03.571Z,71.50
2018-09-23T17:39:31.773Z,70.70
2018-09-23T17:41:59.953Z,71.20
2018-09-23T17:44:28.625Z,70.40
2018-09-23T17:46:56.979Z,70.50
2018-09-23T17:49:25.570Z,70.70
2018-09-23T17:51:54.001Z,70.20
2018-09-23T17:54:22.963Z,70.10
2018-09-23T17:56:51.680Z,70.50
2018-09-23T17:59:19.944Z,69.60
2018-09-23T18:01:48.310Z,69.80
2018-09-23T18:04:16.526Z,69.80
2018-09-23T18:06:44.922Z,69.70
2018-09-23T18:09:13.300Z,69.00
2018-09-23T18:11:41.667Z,70.50
2018-09-23T18:14:10.337Z,70.20
2018-09-23T18:16:38.662Z,71.30
2018-09-23T18:19:07.503Z,71.20
2018-09-23T18:21:36.226Z,70.90
2018-09-23T18:24:04.470Z,71.10
2018-09-23T18:26:32.768Z,72.00
2018-09-23T18:29:01.016Z,71.00
2018-09-23T18:31:29.929Z,70.00
2018-09-23T18:33:58.544Z,69.20
2018-09-23T18:36:26.769Z,68.90
2018-09-23T18:38:55.268Z,70.10
2018-09-23T18:41:23.683Z,69.30
2018-09-23T18:43:54.037Z,69.50
2018-09-23T18:46:22.914Z,70.10
2018-09-23T18:48:51.437Z,69.50
2018-09-23T18:51:19.946Z,68.00
2018-09-23T18:53:53.776Z,68.70
2018-09-23T18:56:22.637Z,68.30
2018-09-23T18:58:51.220Z,68.20
2018-09-23T19:01:20.575Z,67.20
2018-09-23T19:03:48.834Z,67.30
2018-09-23T19:06:17.144Z,67.20
2018-09-23T19:08:45.451Z,67.40
2018-09-23T19:11:13.985Z,67.40
2018-09-23T19:13:48.630Z,66.80
2018-09-23T19:16:22.306Z,66.60
2018-09-23T19:18:51.329Z,66.30
2018-09-23T19:21:19.541Z,66.10
2018-09-23T19:23:47.813Z,66.10
2018-09-23T19:26:16.063Z,66.20
2018-09-23T19:28:44.873Z,66.50
2018-09-23T19:31:13.391Z,66.50
2018-09-23T19:33:41.738Z,66.50
2018-09-23T19:36:09.990Z,65.80
2018-09-23T19:38:38.380Z,66.20
2018-09-23T19:41:07.226Z,65.90
2018-09-23T19:43:36.450Z,66.40
2018-09-23T19:46:05.812Z,66.50
2018-09-23T19:48:35.549Z,66.90
2018-09-23T19:51:03.839Z,67.20
2018-09-23T19:53:32.459Z,65.90
2018-09-23T19:56:01.045Z,65.80
2018-09-23T19:58:29.398Z,65.70
2018-09-23T20:00:58.196Z,65.50
2018-09-23T20:03:26.509Z,65.30
2018-09-23T20:05:54.798Z,65.70
2018-09-23T20:08:23.076Z,66.40
2018-09-23T20:10:51.674Z,67.10
2018-09-23T20:13:20.282Z,67.20
2018-09-23T20:15:48.715Z,68.60
2018-09-23T20:18:17.731Z,68.30
2018-09-23T20:20:45.937Z,68.20
2018-09-23T20:23:14.950Z,67.40
2018-09-23T20:25:44.023Z,66.20
2018-09-23T20:28:12.645Z,65.90
2018-09-23T20:30:41.495Z,66.80
2018-09-23T20:33:09.848Z,67.70
2018-09-23T20:35:38.041Z,67.50
2018-09-23T20:38:07.631Z,65.70
2018-09-23T20:40:36.298Z,66.30
2018-09-23T20:43:05.837Z,66.30
2018-09-23T20:45:34.155Z,66.70
2018-09-23T20:48:03.049Z,66.00
2018-09-23T20:50:31.642Z,65.30
2018-09-23T20:53:00.193Z,65.00
2018-09-23T20:55:29.609Z,64.60
2018-09-23T20:57:58.894Z,65.10
2018-09-23T21:00:28.008Z,64.20
2018-09-23T21:02:56.663Z,64.30
2018-09-23T21:05:24.863Z,64.70
2018-09-23T21:07:53.122Z,65.20
2018-09-23T21:10:21.453Z,64.40
2018-09-23T21:12:49.811Z,64.50
2018-09-23T21:15:18.119Z,63.50
2018-09-23T21:17:46.329Z,63.30
2018-09-23T21:20:14.767Z,63.20
2018-09-23T21:22:43.164Z,63.00
2018-09-23T21:25:11.461Z,63.00
2018-09-23T21:27:39.654Z,62.70
2018-09-23T21:30:07.958Z,63.00
2018-09-23T21:32:37.878Z,62.80
2018-09-23T21:35:07.071Z,62.60
2018-09-23T21:37:35.929Z,62.60
2018-09-23T21:40:04.319Z,63.00
2018-09-23T21:42:33.169Z,63.30
2018-09-23T21:45:01.691Z,63.40
2018-09-23T21:47:30.804Z,62.50
2018-09-23T21:50:00.049Z,62.20
2018-09-23T21:52:28.489Z,62.40
2018-09-23T21:54:56.761Z,62.30
2018-09-23T21:57:25.002Z,63.20
2018-09-23T21:59:53.599Z,61.90
2018-09-23T22:02:21.866Z,61.50
2018-09-23T22:04:51.303Z,60.60
2018-09-23T22:07:19.667Z,61.20
2018-09-23T22:09:47.863Z,62.60
2018-09-23T22:12:16.053Z,61.50
2018-09-23T22:14:45.214Z,61.40
2018-09-23T22:17:13.532Z,60.80
2018-09-23T22:19:42.387Z,61.40
2018-09-23T22:22:10.634Z,61.10
2018-09-23T22:24:38.895Z,61.70
2018-09-23T22:27:07.319Z,60.20
2018-09-23T22:29:35.862Z,60.30
2018-09-23T22:32:04.123Z,61.10
2018-09-23T22:34:32.349Z,61.20
2018-09-23T22:37:00.603Z,60.30
2018-09-23T22:39:29.862Z,60.90
2018-09-23T22:41:59.771Z,59.60
2018-09-23T22:44:29.184Z,60.10
2018-09-23T22:46:58.696Z,59.50
2018-09-23T22:49:27.532Z,59.70
2018-09-23T22:51:55.847Z,58.60
2018-09-23T22:54:25.867Z,58.90
2018-09-23T22:56:54.512Z,58.90
2018-09-23T22:59:30.112Z,59.40
2018-09-23T23:01:59.057Z,59.30
2018-09-23T23:04:28.606Z,58.20
2018-09-23T23:06:56.874Z,58.20
2018-09-23T23:09:25.114Z,59.00
2018-09-23T23:11:53.332Z,58.30
2018-09-23T23:14:21.741Z,57.90
2018-09-23T23:16:50.628Z,57.20
2018-09-23T23:19:18.986Z,57.50
2018-09-23T23:21:47.187Z,56.30
2018-09-23T23:24:15.469Z,56.60
2018-09-23T23:26:43.901Z,56.90
2018-09-23T23:29:13.400Z,55.50
2018-09-23T23:31:41.673Z,56.20
2018-09-23T23:34:09.938Z,55.80
2018-09-23T23:36:38.146Z,56.10
2018-09-23T23:39:08.816Z,56.50
2018-09-23T23:41:38.295Z,57.10
2018-09-23T23:44:07.480Z,56.10
2018-09-23T23:46:36.699Z,56.50
2018-09-23T23:49:05.713Z,55.90
2018-09-23T23:51:34.018Z,56.80
2018-09-23T23:54:02.236Z,56.60
2018-09-23T23:56:30.676Z,56.60
2018-09-23T23:58:59.503Z,55.90
